Khomutovo, Russia

5:14 AM VLAT on September 03, 2015 (GMT +1000)
Khomutovo | | Change Station
CLOSE
Current Station
Airport
Location: Yuzhno-Sakhalinsk,
Elevation: 59 ft
Nearby Weather Stations

Elev 59 ft 46.88 °N, 142.72 °E | Updated 14 minutes ago

Fog
Fog
50 °F
Feels Like 50 °F
N
0
Wind Variable Wind from North

Today
High -- | Low -- °F
--% Chance of Precip.
Yesterday
High -- | Low -- °F
Precip. -- in
5:50 AM 7:06 PM
Waning Gibbous, 78% visible
Pressure 29.65 in
Visibility 0.3 miles
Clouds
Dew Point 50 °F
Humidity 100%
Rainfall 0.00 in
Snow Depth Not available.
UV Not available.
Pollen Not available.
Air Quality Not available.
Flu Activity Not available.
METAR UHSS 021900Z 00000MPS 0500 R01/1000U FG VV002 10/10 Q1004 R01/CLRD70 NOSIG RMK QBB070 MT OBSC QFE752/1003
Pressure 29.65 in
Visibility 0.3 miles
Clouds
Dew Point 50 °F
Humidity 100%
Rainfall 0.00 in
Snow Depth Not available.
UV Not available.
Pollen Not available.
Air Quality Not available.
Flu Activity Not available.
METAR UHSS 021900Z 00000MPS 0500 R01/1000U FG VV002 10/10 Q1004 R01/CLRD70 NOSIG RMK QBB070 MT OBSC QFE752/1003

10-Day Weather Forecast

×

Almanac

Astronomy

Sep. 03, 2015 Rise Set
Actual Time
Civil Twilight
Nautical Twilight
Astronomical Twilight
Moon
Length of Visible Light
Length of Day
Tomorrow will be .
, % of the Moon is Illuminated

Today's Extremes

Country Highs Country Lows

Community

WunderPhotos

Upload Photos

1,851,799 photos uploaded!

WunderBlogs® & News

Nearby

Air Quality

  Air Quality AQ Index Pollutant
Not available.

Snow Depth

Station Depth Elevation

Earthquake Activity

City Distance Mag. Time & Date
Minimum magnitude displayed is 2.5.

Coastal Water Temperatures

Place Temperature

Stations

Nearby Weather Stations

Station Location Temp. Windchill Dew Point Humidity Wind Precip. Elev Updated Type